createdAt,value
2017-09-19T05:53:14.272Z,240
2017-09-19T05:53:54.808Z,236
2017-09-19T05:54:35.322Z,232
2017-09-19T05:55:15.859Z,228
2017-09-19T05:55:56.392Z,216
2017-09-19T05:56:36.914Z,216
2017-09-19T05:57:17.443Z,220
2017-09-19T05:57:57.978Z,224
2017-09-19T05:58:38.510Z,240
2017-09-19T05:59:19.048Z,252
2017-09-19T05:59:59.576Z,252
2017-09-19T06:00:40.104Z,252
2017-09-19T06:01:20.636Z,256
2017-09-19T06:02:01.152Z,252
2017-09-19T06:02:41.698Z,244
2017-09-19T06:03:22.238Z,240
2017-09-19T06:04:02.761Z,236
2017-09-19T06:04:43.293Z,232
2017-09-19T06:05:23.830Z,224
2017-09-19T06:06:04.366Z,216
2017-09-19T06:06:44.901Z,212
2017-09-19T06:07:25.423Z,216
2017-09-19T06:08:05.963Z,212
2017-09-19T06:08:46.500Z,216
2017-09-19T06:09:27.030Z,224
2017-09-19T06:10:07.567Z,236
2017-09-19T06:10:48.101Z,248
2017-09-19T06:11:28.641Z,264
2017-09-19T06:12:09.178Z,276
2017-09-19T06:12:49.714Z,284
2017-09-19T06:13:30.243Z,296
2017-09-19T06:14:10.770Z,308
2017-09-19T06:14:51.307Z,320
2017-09-19T06:15:31.847Z,340
2017-09-19T06:16:12.382Z,348
2017-09-19T06:16:52.920Z,360
2017-09-19T06:17:33.471Z,372
2017-09-19T06:18:13.972Z,392
2017-09-19T06:18:54.516Z,404
2017-09-19T06:19:35.018Z,428
2017-09-19T06:20:15.549Z,444
2017-09-19T06:20:56.078Z,464
2017-09-19T06:21:36.605Z,492
2017-09-19T06:22:17.140Z,532
2017-09-19T06:22:57.669Z,568
2017-09-19T06:23:38.177Z,592
2017-09-19T06:24:18.692Z,620
2017-09-19T06:24:59.220Z,652
2017-09-19T06:25:39.760Z,684
2017-09-19T06:26:20.289Z,724
2017-09-19T06:27:00.832Z,768
2017-09-19T06:27:41.352Z,804
2017-09-19T06:28:21.877Z,824
2017-09-19T06:29:02.403Z,804
2017-09-19T06:29:42.930Z,796
2017-09-19T06:30:23.456Z,816
2017-09-19T06:31:03.972Z,828
2017-09-19T06:31:44.528Z,808
2017-09-19T06:32:25.011Z,780
2017-09-19T06:33:05.558Z,756
2017-09-19T06:33:46.077Z,720
2017-09-19T06:34:26.587Z,668
2017-09-19T06:35:07.110Z,652
2017-09-19T06:35:47.658Z,648
2017-09-19T06:36:28.184Z,652
2017-09-19T06:37:08.728Z,644
2017-09-19T06:37:49.245Z,620
2017-09-19T06:38:29.771Z,624
2017-09-19T06:39:10.363Z,660
2017-09-19T06:39:50.889Z,672
2017-09-19T06:40:31.397Z,676
2017-09-19T06:41:11.911Z,688
2017-09-19T06:41:52.438Z,688
2017-09-19T06:42:32.966Z,712
2017-09-19T06:43:13.505Z,736
2017-09-19T06:43:54.023Z,728
2017-09-19T06:44:34.542Z,704
2017-09-19T06:45:15.054Z,660
2017-09-19T06:45:55.578Z,624
2017-09-19T06:46:36.100Z,596
2017-09-19T06:47:16.639Z,584
2017-09-19T06:47:57.158Z,580
2017-09-19T06:48:37.675Z,576
2017-09-19T06:49:18.212Z,600
2017-09-19T06:49:58.744Z,632
2017-09-19T06:50:39.284Z,668
2017-09-19T06:51:19.817Z,700
2017-09-19T06:52:00.358Z,700
2017-09-19T06:52:40.887Z,696
2017-09-19T06:53:21.424Z,704
2017-09-19T06:54:01.960Z,684
2017-09-19T06:54:42.485Z,640
2017-09-19T06:55:23.024Z,608
2017-09-19T06:56:03.563Z,584
2017-09-19T06:56:44.102Z,576
2017-09-19T06:57:24.631Z,580
2017-09-19T06:58:05.143Z,572
2017-09-19T06:58:45.671Z,544
2017-09-19T06:59:26.248Z,520
2017-09-19T07:00:06.768Z,520
2017-09-19T07:00:47.295Z,532
2017-09-19T07:01:27.822Z,536
2017-09-19T07:02:08.364Z,532
2017-09-19T07:02:48.897Z,528
2017-09-19T07:03:29.431Z,528
2017-09-19T07:04:09.942Z,524
2017-09-19T07:04:50.472Z,520
2017-09-19T07:05:31.011Z,524
2017-09-19T07:06:11.549Z,520
2017-09-19T07:06:52.086Z,520
2017-09-19T07:07:32.610Z,536
2017-09-19T07:08:13.133Z,552
2017-09-19T07:08:53.665Z,584
2017-09-19T07:09:34.194Z,644
2017-09-19T07:10:14.724Z,700
2017-09-19T07:10:55.247Z,740
2017-09-19T07:11:35.769Z,792
2017-09-19T07:12:16.289Z,860
2017-09-19T07:12:56.833Z,860
2017-09-19T07:13:37.347Z,896
2017-09-19T07:14:17.884Z,960
2017-09-19T07:14:58.416Z,1024
2017-09-19T07:15:38.949Z,1032
2017-09-19T07:16:19.495Z,1008
2017-09-19T07:17:00.032Z,988
2017-09-19T07:17:40.560Z,1016
2017-09-19T07:18:21.102Z,1060
2017-09-19T07:19:01.622Z,1148
2017-09-19T07:19:42.155Z,1232
2017-09-19T07:20:22.677Z,1308
2017-09-19T07:21:03.206Z,1452
2017-09-19T07:21:43.740Z,1332
2017-09-19T07:22:24.264Z,1292
2017-09-19T07:23:04.795Z,1280
2017-09-19T07:23:45.323Z,1432
2017-09-19T07:24:25.856Z,1448
2017-09-19T07:25:06.385Z,1424
2017-09-19T07:25:46.936Z,1392
2017-09-19T07:26:27.444Z,1200
2017-09-19T07:27:07.972Z,1112
2017-09-19T07:27:48.501Z,1100
2017-09-19T07:28:29.026Z,1140
2017-09-19T07:29:09.568Z,1132
2017-09-19T07:29:50.108Z,1100
2017-09-19T07:30:30.629Z,1040
2017-09-19T07:31:11.138Z,1016
2017-09-19T07:31:51.673Z,1104
2017-09-19T07:32:32.223Z,1264
2017-09-19T07:33:12.760Z,1264
2017-09-19T07:33:53.296Z,1196
2017-09-19T07:34:33.812Z,1200
2017-09-19T07:35:14.347Z,1260
2017-09-19T07:35:54.876Z,1232
2017-09-19T07:36:35.410Z,1236
2017-09-19T07:37:15.948Z,1256
2017-09-19T07:37:56.478Z,1296
2017-09-19T07:38:37.016Z,1356
2017-09-19T07:39:17.543Z,1396
2017-09-19T07:39:58.092Z,1344
2017-09-19T07:40:38.624Z,1296
2017-09-19T07:41:19.161Z,1228
2017-09-19T07:41:59.702Z,1296
2017-09-19T07:42:40.222Z,1360
2017-09-19T07:43:20.743Z,1420
2017-09-19T07:44:01.277Z,1516
2017-09-19T07:44:41.816Z,1524
2017-09-19T07:45:22.357Z,1500
2017-09-19T07:46:02.883Z,1496
2017-09-19T07:46:43.404Z,1404
2017-09-19T07:47:23.933Z,1352
2017-09-19T07:48:04.481Z,1228
2017-09-19T07:48:44.999Z,1212
2017-09-19T07:49:25.544Z,1208
2017-09-19T07:50:06.073Z,1188
2017-09-19T07:50:46.641Z,1144
2017-09-19T07:51:27.180Z,1152
2017-09-19T07:52:07.699Z,1180
2017-09-19T07:52:48.227Z,1280
2017-09-19T07:53:28.759Z,1240
2017-09-19T07:54:09.293Z,1184
2017-09-19T07:54:49.797Z,1188
2017-09-19T07:55:30.334Z,1296
2017-09-19T07:56:10.868Z,1328
2017-09-19T07:56:51.389Z,1336
2017-09-19T07:57:31.900Z,1300
2017-09-19T07:58:12.435Z,1252
2017-09-19T07:58:52.962Z,1248
2017-09-19T07:59:33.501Z,1236
2017-09-19T08:00:14.048Z,1276
2017-09-19T08:00:54.564Z,1292
2017-09-19T08:01:35.077Z,1232
2017-09-19T08:02:15.624Z,1248
2017-09-19T08:02:56.156Z,1320
2017-09-19T08:03:36.675Z,1352
2017-09-19T08:04:17.211Z,1400
2017-09-19T08:04:57.741Z,1468
2017-09-19T08:05:38.265Z,1588
2017-09-19T08:06:18.787Z,1676
2017-09-19T08:06:59.319Z,1732
2017-09-19T08:07:39.855Z,1900
2017-09-19T08:08:20.393Z,2072
2017-09-19T08:09:00.930Z,2252
2017-09-19T08:09:41.466Z,2388
2017-09-19T08:10:21.995Z,2524
2017-09-19T08:11:02.530Z,2556
2017-09-19T08:11:43.045Z,2604
2017-09-19T08:12:23.595Z,2748
2017-09-19T08:13:04.135Z,3048
2017-09-19T08:13:44.646Z,3340
2017-09-19T08:14:25.178Z,3320
2017-09-19T08:15:05.704Z,3120
2017-09-19T08:15:46.226Z,3112
2017-09-19T08:16:26.759Z,3220
2017-09-19T08:17:07.279Z,3212
2017-09-19T08:17:47.801Z,3144
2017-09-19T08:18:28.338Z,2824
2017-09-19T08:19:08.880Z,2536
2017-09-19T08:19:49.450Z,2300
2017-09-19T08:20:29.983Z,2172
2017-09-19T08:21:10.527Z,2180
2017-09-19T08:21:51.061Z,2376
2017-09-19T08:22:31.574Z,2632
2017-09-19T08:23:12.093Z,3080
2017-09-19T08:23:52.617Z,3456
2017-09-19T08:24:33.148Z,3532
2017-09-19T08:25:13.683Z,3524
2017-09-19T08:25:54.203Z,3632
2017-09-19T08:26:34.739Z,3852
2017-09-19T08:27:15.262Z,4228
2017-09-19T08:27:55.798Z,4612
2017-09-19T08:28:36.326Z,5204
2017-09-19T08:29:16.911Z,6000
2017-09-19T08:29:57.406Z,6500
2017-09-19T08:30:37.941Z,6700
2017-09-19T08:31:18.470Z,7128
2017-09-19T08:31:59.000Z,7644
2017-09-19T08:32:39.522Z,7212
2017-09-19T08:33:20.056Z,7616
2017-09-19T08:34:00.596Z,7236
2017-09-19T08:34:41.132Z,6504
2017-09-19T08:35:21.656Z,6456
2017-09-19T08:36:02.164Z,6416
2017-09-19T08:36:42.693Z,5824
2017-09-19T08:37:23.257Z,4832
2017-09-19T08:38:03.759Z,4504
2017-09-19T08:38:44.287Z,4648
2017-09-19T08:39:24.815Z,4552
2017-09-19T08:40:05.333Z,4200
2017-09-19T08:40:45.866Z,3920
2017-09-19T08:41:26.407Z,3752
2017-09-19T08:42:06.930Z,3456
2017-09-19T08:42:47.464Z,3156
2017-09-19T08:43:28.001Z,2980
2017-09-19T08:44:08.539Z,3032
2017-09-19T08:44:49.082Z,3112
2017-09-19T08:45:29.612Z,2860
2017-09-19T08:46:10.133Z,2372
2017-09-19T08:46:50.666Z,1916
2017-09-19T08:47:31.203Z,1712
2017-09-19T08:48:11.743Z,1524
2017-09-19T08:48:52.274Z,1544
2017-09-19T08:49:32.812Z,1828
2017-09-19T08:50:13.350Z,2152
2017-09-19T08:50:53.886Z,2344
2017-09-19T08:51:34.430Z,2292
2017-09-19T08:52:14.959Z,2292
2017-09-19T08:52:55.499Z,2332
2017-09-19T08:53:36.039Z,2520
2017-09-19T08:54:16.568Z,2688
2017-09-19T08:54:57.085Z,2920
2017-09-19T08:55:37.628Z,3344
2017-09-19T08:56:18.167Z,3368
2017-09-19T08:56:58.692Z,3440
2017-09-19T08:57:39.226Z,3772
2017-09-19T08:58:19.756Z,3996
2017-09-19T08:59:00.283Z,4416
2017-09-19T08:59:40.826Z,5384
2017-09-19T09:00:21.364Z,6568
2017-09-19T09:01:01.888Z,7672
2017-09-19T09:01:42.433Z,7744
2017-09-19T09:02:22.970Z,11868
2017-09-19T09:03:03.499Z,23776
2017-09-19T09:03:44.034Z,25120
2017-09-19T09:04:24.577Z,26688
2017-09-19T09:05:05.105Z,28256
2017-09-19T09:05:45.639Z,29920
2017-09-19T09:06:26.185Z,29472
2017-09-19T09:07:06.723Z,19968
2017-09-19T09:07:47.253Z,13588
2017-09-19T09:08:27.784Z,11924
2017-09-19T09:09:08.317Z,10640
2017-09-19T09:09:48.863Z,8296
2017-09-19T09:10:29.406Z,7092
2017-09-19T09:11:09.940Z,6620
2017-09-19T09:11:50.487Z,6440
2017-09-19T09:12:31.013Z,6536
2017-09-19T09:13:11.550Z,6228
2017-09-19T09:13:52.109Z,5672
2017-09-19T09:14:32.617Z,5360
2017-09-19T09:15:13.142Z,5752
2017-09-19T09:15:53.671Z,6268
2017-09-19T09:16:34.206Z,6048
2017-09-19T09:17:14.751Z,4820
2017-09-19T09:17:55.288Z,4220
2017-09-19T09:18:35.842Z,3640
2017-09-19T09:19:16.388Z,3152
2017-09-19T09:19:56.919Z,2936
2017-09-19T09:20:37.458Z,2972
2017-09-19T09:21:17.994Z,3100
2017-09-19T09:21:58.538Z,3108
2017-09-19T09:22:39.068Z,2988
2017-09-19T09:23:19.592Z,2764
2017-09-19T09:24:00.128Z,2668
2017-09-19T09:24:40.660Z,2764
2017-09-19T09:25:21.197Z,3228
2017-09-19T09:26:01.722Z,3908
2017-09-19T09:26:42.245Z,4592
2017-09-19T09:27:22.787Z,5096
2017-09-19T09:28:03.295Z,4604
2017-09-19T09:28:43.832Z,3872
2017-09-19T09:29:24.369Z,3332
2017-09-19T09:30:04.909Z,3180
2017-09-19T09:30:45.443Z,3192
2017-09-19T09:31:25.977Z,3148
2017-09-19T09:32:06.511Z,2804
2017-09-19T09:32:47.031Z,2568
2017-09-19T09:33:27.572Z,2340
2017-09-19T09:34:08.111Z,2320
2017-09-19T09:34:48.643Z,2296
2017-09-19T09:35:29.190Z,2220
2017-09-19T09:36:09.724Z,2088
2017-09-19T09:36:50.268Z,2108
2017-09-19T09:37:30.803Z,2292
2017-09-19T09:38:11.335Z,2456
2017-09-19T09:38:51.883Z,2324
2017-09-19T09:39:32.414Z,2208
2017-09-19T09:40:12.955Z,2248
2017-09-19T09:40:53.496Z,2344
2017-09-19T09:41:34.082Z,2280
2017-09-19T09:42:14.574Z,2208
2017-09-19T09:42:55.118Z,2176
2017-09-19T09:43:35.673Z,2168
2017-09-19T09:44:16.207Z,2252
2017-09-19T09:44:56.755Z,2440
2017-09-19T09:45:37.282Z,2548
2017-09-19T09:46:17.810Z,2916
2017-09-19T09:46:58.346Z,3204
2017-09-19T09:47:38.880Z,3240
2017-09-19T09:48:19.412Z,3156
2017-09-19T09:48:59.938Z,3012
2017-09-19T09:49:40.464Z,3116
2017-09-19T09:50:20.998Z,3360
2017-09-19T09:51:01.517Z,3544
2017-09-19T09:51:42.060Z,3596
2017-09-19T09:52:22.587Z,3560
2017-09-19T09:53:03.120Z,3720
2017-09-19T09:53:43.667Z,4092
2017-09-19T09:54:24.203Z,4204
2017-09-19T09:55:04.738Z,4212
2017-09-19T09:55:45.266Z,4292
2017-09-19T09:56:25.800Z,4260
2017-09-19T09:57:06.319Z,4396
2017-09-19T09:57:46.850Z,4520
2017-09-19T09:58:27.382Z,5252
2017-09-19T09:59:07.919Z,6904
2017-09-19T09:59:48.452Z,7520
2017-09-19T10:00:28.987Z,9980
2017-09-19T10:01:09.530Z,9288
2017-09-19T10:01:50.078Z,12124
2017-09-19T10:02:30.615Z,15632
2017-09-19T10:03:11.154Z,16396
2017-09-19T10:03:51.695Z,22112
2017-09-19T10:04:32.232Z,19072
2017-09-19T10:05:12.773Z,18944
2017-09-19T10:05:53.301Z,22176
2017-09-19T10:06:33.838Z,23072
2017-09-19T10:07:14.383Z,20736
2017-09-19T10:07:54.922Z,21440
2017-09-19T10:08:35.451Z,19328
2017-09-19T10:09:15.994Z,15324
2017-09-19T10:09:56.531Z,13224
2017-09-19T10:10:37.068Z,11068
2017-09-19T10:11:17.606Z,10976
2017-09-19T10:11:58.144Z,13652
2017-09-19T10:12:38.683Z,18944
2017-09-19T10:13:19.225Z,20672
2017-09-19T10:13:59.760Z,21760
2017-09-19T10:14:40.286Z,21600
2017-09-19T10:15:20.835Z,20256
2017-09-19T10:16:01.373Z,21024
2017-09-19T10:16:41.897Z,19712
2017-09-19T10:17:22.430Z,19136
2017-09-19T10:18:02.969Z,20576
2017-09-19T10:18:43.504Z,24576
2017-09-19T10:19:24.045Z,22976
2017-09-19T10:20:04.585Z,23456
2017-09-19T10:20:45.124Z,22592
2017-09-19T10:21:25.668Z,25120
2017-09-19T10:22:06.205Z,18048
2017-09-19T10:22:46.748Z,17824
2017-09-19T10:23:27.296Z,9164
2017-09-19T10:24:07.842Z,7024
2017-09-19T10:24:48.352Z,5712
2017-09-19T10:25:28.880Z,5260
2017-09-19T10:26:09.406Z,5080
2017-09-19T10:26:49.949Z,4688
2017-09-19T10:27:30.487Z,5208
2017-09-19T10:28:11.016Z,5584
2017-09-19T10:28:51.553Z,5936
2017-09-19T10:29:32.082Z,5796
2017-09-19T10:30:12.622Z,5768
2017-09-19T10:30:53.159Z,6056
2017-09-19T10:31:33.698Z,6952
2017-09-19T10:32:14.240Z,6984
2017-09-19T10:32:54.773Z,4212
2017-09-19T10:33:35.317Z,4044
2017-09-19T10:34:15.859Z,4176
2017-09-19T10:34:56.395Z,4272
2017-09-19T10:35:36.930Z,4548
2017-09-19T10:36:17.460Z,4568
2017-09-19T10:36:58.015Z,4696
2017-09-19T10:37:38.553Z,4864
2017-09-19T10:38:19.094Z,4928
2017-09-19T10:38:59.635Z,4432
2017-09-19T10:39:40.170Z,3832
2017-09-19T10:40:20.702Z,3508
2017-09-19T10:41:01.242Z,3348
2017-09-19T10:41:41.779Z,3284
2017-09-19T10:42:22.310Z,3288
2017-09-19T10:43:02.845Z,3272
2017-09-19T10:43:43.376Z,3368
2017-09-19T10:44:23.911Z,3580
2017-09-19T10:45:04.444Z,3820
2017-09-19T10:45:44.980Z,4124
2017-09-19T10:46:25.521Z,4424
2017-09-19T10:47:06.061Z,4612
2017-09-19T10:47:46.599Z,5092
2017-09-19T10:48:27.141Z,5464
2017-09-19T10:49:07.666Z,5684
2017-09-19T10:49:48.197Z,5948
2017-09-19T10:50:28.723Z,6356
2017-09-19T10:51:09.271Z,6440
2017-09-19T10:51:49.814Z,6404
2017-09-19T10:52:30.340Z,6400
2017-09-19T10:53:10.896Z,5848
2017-09-19T10:53:51.426Z,5816
2017-09-19T10:54:31.959Z,5984
2017-09-19T10:55:12.501Z,6288
2017-09-19T10:55:53.037Z,6452
2017-09-19T10:56:33.575Z,6824
2017-09-19T10:57:14.116Z,6576
2017-09-19T10:57:54.648Z,6720
2017-09-19T10:58:35.186Z,7684
2017-09-19T10:59:15.716Z,7668
2017-09-19T10:59:56.244Z,7672
2017-09-19T11:00:36.785Z,7988
2017-09-19T11:01:17.324Z,8236
2017-09-19T11:01:57.865Z,7564
2017-09-19T11:02:38.410Z,7180
2017-09-19T11:03:18.948Z,7464
2017-09-19T11:03:59.491Z,7996
2017-09-19T11:04:40.006Z,8280
2017-09-19T11:05:20.542Z,7660
2017-09-19T11:06:01.076Z,10756
2017-09-19T11:06:41.616Z,5836
2017-09-19T11:07:22.144Z,5124
2017-09-19T11:08:02.682Z,4504
2017-09-19T11:08:43.209Z,4248
2017-09-19T11:09:23.739Z,3568
2017-09-19T11:10:04.280Z,3272
2017-09-19T11:10:44.818Z,3976
2017-09-19T11:11:25.343Z,6656
2017-09-19T11:12:05.917Z,9176
2017-09-19T11:12:46.433Z,10440
2017-09-19T11:13:26.964Z,13404
2017-09-19T11:14:07.499Z,12544
2017-09-19T11:14:48.038Z,10876
2017-09-19T11:15:28.584Z,9932
2017-09-19T11:16:09.119Z,8660
2017-09-19T11:16:49.652Z,7600
2017-09-19T11:17:30.220Z,7896
2017-09-19T11:18:10.754Z,10308
2017-09-19T11:18:51.288Z,9704
2017-09-19T11:19:31.832Z,9852
2017-09-19T11:20:12.374Z,9116
2017-09-19T11:20:52.901Z,8304
2017-09-19T11:21:33.439Z,13840
2017-09-19T11:22:13.977Z,7640
2017-09-19T11:22:54.521Z,6928
2017-09-19T11:23:35.050Z,7456
2017-09-19T11:24:15.574Z,7284
2017-09-19T11:24:56.107Z,7060
2017-09-19T11:25:36.652Z,7724
2017-09-19T11:26:17.194Z,7976
2017-09-19T11:26:57.730Z,8304
2017-09-19T11:27:38.272Z,8088
2017-09-19T11:28:18.795Z,6928
2017-09-19T11:28:59.339Z,6124
2017-09-19T11:29:39.876Z,5452
2017-09-19T11:30:20.407Z,4260
2017-09-19T11:31:00.956Z,3556
2017-09-19T11:31:41.498Z,2972
2017-09-19T11:32:22.056Z,2528
2017-09-19T11:33:02.587Z,2372
2017-09-19T11:33:43.133Z,2168
2017-09-19T11:34:23.674Z,2172
2017-09-19T11:35:04.202Z,2424
2017-09-19T11:35:44.724Z,2788
2017-09-19T11:36:25.253Z,3832
2017-09-19T11:37:05.796Z,6216
2017-09-19T11:37:46.477Z,7464
2017-09-19T11:38:27.030Z,7460
2017-09-19T11:39:07.569Z,6804
2017-09-19T11:39:48.118Z,5932
2017-09-19T11:40:28.661Z,5340
2017-09-19T11:41:09.206Z,5520
2017-09-19T11:41:49.728Z,6232
2017-09-19T11:42:30.417Z,6752
2017-09-19T11:43:10.863Z,7344
2017-09-19T11:43:51.673Z,7916
2017-09-19T11:44:32.355Z,8356
2017-09-19T11:45:13.182Z,8372
2017-09-19T11:45:53.941Z,8336
2017-09-19T11:46:35.726Z,7900
2017-09-19T11:47:16.854Z,7524
2017-09-19T11:47:57.819Z,7840
2017-09-19T11:48:38.892Z,7400
2017-09-19T11:49:19.418Z,7204
2017-09-19T11:49:59.939Z,6864
2017-09-19T11:50:41.526Z,5144
2017-09-19T11:51:22.190Z,5028
2017-09-19T11:52:03.197Z,4460
2017-09-19T11:52:44.167Z,4324
2017-09-19T11:53:25.264Z,4196
2017-09-19T11:54:06.270Z,4268
2017-09-19T11:54:46.773Z,4992
2017-09-19T11:55:27.518Z,4328
2017-09-19T11:56:08.170Z,3928
2017-09-19T11:56:48.873Z,4388
2017-09-19T11:57:30.151Z,4756
2017-09-19T11:58:11.852Z,4212
2017-09-19T11:58:53.126Z,3684
2017-09-19T11:59:33.779Z,3276
2017-09-19T12:00:14.409Z,2960
2017-09-19T12:00:54.939Z,2884
2017-09-19T12:01:35.471Z,3580
2017-09-19T12:02:16.356Z,4744
2017-09-19T12:02:56.876Z,5036
2017-09-19T12:03:38.141Z,4780
2017-09-19T12:04:18.173Z,4828
2017-09-19T12:04:58.641Z,4552
2017-09-19T12:05:39.240Z,4356
2017-09-19T12:06:19.851Z,4524
2017-09-19T12:07:00.744Z,4644
2017-09-19T12:07:41.660Z,4040
2017-09-19T12:08:22.359Z,3196
2017-09-19T12:09:03.192Z,2468
2017-09-19T12:09:44.090Z,2072
2017-09-19T12:10:26.253Z,1896
2017-09-19T12:11:08.377Z,1856
2017-09-19T12:11:49.933Z,1884
2017-09-19T12:12:30.755Z,1976
2017-09-19T12:13:11.284Z,2020
2017-09-19T12:13:51.935Z,2104
2017-09-19T12:14:32.747Z,2240
2017-09-19T12:15:13.347Z,2368
2017-09-19T12:15:54.060Z,2308
2017-09-19T12:16:34.586Z,2300
2017-09-19T12:17:15.171Z,2284
2017-09-19T12:17:56.331Z,2344
2017-09-19T12:18:36.852Z,2476
2017-09-19T12:19:17.962Z,2364
2017-09-19T12:19:58.478Z,2404
2017-09-19T12:20:38.987Z,2352
2017-09-19T12:21:19.526Z,2292
2017-09-19T12:22:00.625Z,2096
2017-09-19T12:22:41.746Z,1904
2017-09-19T12:23:22.405Z,2164
2017-09-19T12:24:02.914Z,2364
2017-09-19T12:24:43.484Z,2412
2017-09-19T12:25:24.184Z,2528
2017-09-19T12:26:04.724Z,2632
2017-09-19T12:26:45.269Z,2752
2017-09-19T12:27:25.808Z,2880
2017-09-19T12:28:06.340Z,2860
2017-09-19T12:28:46.881Z,3060
2017-09-19T12:29:27.398Z,3112
2017-09-19T12:30:07.937Z,2868
2017-09-19T12:30:48.469Z,2748
2017-09-19T12:31:28.995Z,2980
2017-09-19T12:32:09.538Z,2788
2017-09-19T12:32:50.069Z,2656
2017-09-19T12:33:30.645Z,2720
2017-09-19T12:34:11.166Z,2988
2017-09-19T12:34:51.685Z,3100
2017-09-19T12:35:32.219Z,3092
2017-09-19T12:36:12.747Z,3108
2017-09-19T12:36:53.288Z,3436
2017-09-19T12:37:33.814Z,3784
2017-09-19T12:38:14.345Z,4072
2017-09-19T12:38:54.882Z,4236
2017-09-19T12:39:35.423Z,4204
2017-09-19T12:40:15.959Z,4304
2017-09-19T12:40:56.492Z,4512
2017-09-19T12:41:37.027Z,4704
2017-09-19T12:42:17.562Z,4876
2017-09-19T12:42:58.099Z,4864
2017-09-19T12:43:38.629Z,4640
2017-09-19T12:44:19.164Z,4676
2017-09-19T12:44:59.702Z,4632
2017-09-19T12:45:40.234Z,4028
2017-09-19T12:46:20.765Z,3348
2017-09-19T12:47:01.302Z,2912
2017-09-19T12:47:41.837Z,3060
2017-09-19T12:48:22.379Z,3516
2017-09-19T12:49:02.915Z,3796
2017-09-19T12:49:43.502Z,4360
2017-09-19T12:50:24.040Z,4552
2017-09-19T12:51:04.576Z,4780
2017-09-19T12:51:45.113Z,4780
2017-09-19T12:52:25.654Z,4460
2017-09-19T12:53:06.187Z,3984
2017-09-19T12:53:46.722Z,3276
2017-09-19T12:54:27.261Z,2964
2017-09-19T12:55:07.799Z,3056
2017-09-19T12:55:48.397Z,3920
2017-09-19T12:56:28.927Z,4496
2017-09-19T12:57:09.461Z,4696
2017-09-19T12:57:50.003Z,4352
2017-09-19T12:58:30.533Z,4196
2017-09-19T12:59:11.078Z,4344
2017-09-19T12:59:51.616Z,5068
2017-09-19T13:00:32.155Z,5928
2017-09-19T13:01:12.699Z,6288
2017-09-19T13:01:53.226Z,6656
2017-09-19T13:02:33.765Z,6700
2017-09-19T13:03:14.304Z,6528
2017-09-19T13:03:54.834Z,6600
2017-09-19T13:04:35.369Z,6420
2017-09-19T13:05:15.917Z,6400
2017-09-19T13:05:56.429Z,6688
2017-09-19T13:06:36.980Z,6864
2017-09-19T13:07:17.553Z,6808
2017-09-19T13:07:58.082Z,6584
2017-09-19T13:08:38.622Z,6472
2017-09-19T13:09:19.159Z,6508
2017-09-19T13:09:59.690Z,6364
2017-09-19T13:10:40.249Z,6184
2017-09-19T13:11:20.782Z,6072
2017-09-19T13:12:01.329Z,6036
2017-09-19T13:12:41.861Z,6176
2017-09-19T13:13:22.410Z,6188
2017-09-19T13:14:02.937Z,6304
2017-09-19T13:14:43.472Z,6012
2017-09-19T13:15:24.025Z,5300
2017-09-19T13:16:04.555Z,5192
2017-09-19T13:16:45.096Z,5212
2017-09-19T13:17:25.625Z,5000
2017-09-19T13:18:06.160Z,4344
2017-09-19T13:18:46.698Z,3804
2017-09-19T13:19:27.234Z,3660
2017-09-19T13:20:07.766Z,4128
2017-09-19T13:20:48.309Z,4036
2017-09-19T13:21:28.904Z,3952
2017-09-19T13:22:09.436Z,4508
2017-09-19T13:22:49.974Z,4952
2017-09-19T13:23:30.514Z,4828
2017-09-19T13:24:11.065Z,5640
2017-09-19T13:24:51.597Z,6368
2017-09-19T13:25:32.134Z,6788
2017-09-19T13:26:12.669Z,7480
2017-09-19T13:26:53.194Z,8072
2017-09-19T13:27:33.715Z,8436
2017-09-19T13:28:14.256Z,9724
2017-09-19T13:28:54.749Z,8900
2017-09-19T13:29:35.277Z,8700
2017-09-19T13:30:15.811Z,8524
2017-09-19T13:30:56.329Z,7732
2017-09-19T13:31:36.844Z,6876
2017-09-19T13:32:17.372Z,6480
2017-09-19T13:32:57.905Z,5932
2017-09-19T13:33:38.448Z,5792
2017-09-19T13:34:18.979Z,5444
2017-09-19T13:34:59.490Z,5172
2017-09-19T13:35:40.024Z,5036
2017-09-19T13:36:20.547Z,5220
2017-09-19T13:37:01.077Z,5336
2017-09-19T13:37:41.625Z,5200
2017-09-19T13:38:22.154Z,8224
2017-09-19T13:39:02.688Z,6252
2017-09-19T13:39:43.227Z,4732
2017-09-19T13:40:23.757Z,10560
2017-09-19T13:41:04.299Z,11696
2017-09-19T13:41:44.830Z,4532
2017-09-19T13:42:25.347Z,14388
2017-09-19T13:43:05.921Z,10212
2017-09-19T13:43:46.505Z,7884
2017-09-19T13:44:27.003Z,7448
2017-09-19T13:45:07.541Z,7520
2017-09-19T13:45:48.089Z,7620
2017-09-19T13:46:28.629Z,7252
2017-09-19T13:47:09.173Z,6920
2017-09-19T13:47:49.706Z,6448
2017-09-19T13:48:30.230Z,6908
2017-09-19T13:49:10.762Z,7028
2017-09-19T13:49:51.303Z,6688
2017-09-19T13:50:31.844Z,6736
2017-09-19T13:51:12.384Z,6488
2017-09-19T13:51:52.920Z,6488
2017-09-19T13:52:33.447Z,6432
2017-09-19T13:53:13.990Z,6268
2017-09-19T13:53:54.509Z,6336
2017-09-19T13:54:35.050Z,6576
2017-09-19T13:55:15.597Z,6708
2017-09-19T13:55:56.129Z,6820
2017-09-19T13:56:36.677Z,6368
2017-09-19T13:57:17.216Z,6092
2017-09-19T13:57:57.710Z,5976
2017-09-19T13:58:38.259Z,5856
2017-09-19T13:59:18.771Z,6156
2017-09-19T13:59:59.309Z,6492
2017-09-19T14:00:39.842Z,6516
2017-09-19T14:01:20.359Z,6800
2017-09-19T14:02:00.881Z,6928
2017-09-19T14:02:41.419Z,6808
2017-09-19T14:03:21.972Z,6588
2017-09-19T14:04:02.500Z,6608
2017-09-19T14:04:43.041Z,6788
2017-09-19T14:05:23.572Z,7144
2017-09-19T14:06:04.111Z,7720
2017-09-19T14:06:44.654Z,6492
2017-09-19T14:07:25.176Z,6028
2017-09-19T14:08:05.719Z,4924
2017-09-19T14:08:46.254Z,4088
2017-09-19T14:09:26.780Z,3288
2017-09-19T14:10:07.310Z,2560
2017-09-19T14:10:47.833Z,1896
2017-09-19T14:11:28.376Z,1404
2017-09-19T14:12:08.905Z,1124
2017-09-19T14:12:49.434Z,972
2017-09-19T14:13:29.968Z,864
2017-09-19T14:14:10.503Z,840
2017-09-19T14:14:51.035Z,904
2017-09-19T14:15:31.582Z,1144
2017-09-19T14:16:12.129Z,1556
2017-09-19T14:16:52.666Z,1980
2017-09-19T14:17:33.183Z,2256
2017-09-19T14:18:13.711Z,3564
2017-09-19T14:18:54.238Z,3696
2017-09-19T14:19:34.746Z,3316
2017-09-19T14:20:15.264Z,2712
2017-09-19T14:20:55.921Z,2776
2017-09-19T14:21:46.419Z,2568
2017-09-19T14:22:27.013Z,2948
2017-09-19T14:23:07.547Z,3116
2017-09-19T14:23:48.077Z,3440
2017-09-19T14:24:28.611Z,4228
2017-09-19T14:25:09.121Z,4764
2017-09-19T14:25:49.639Z,4724
2017-09-19T14:26:30.172Z,4276
2017-09-19T14:27:10.706Z,3228
2017-09-19T14:27:51.244Z,3288
2017-09-19T14:28:31.776Z,3496
2017-09-19T14:29:12.322Z,3520
2017-09-19T14:29:52.856Z,3340
2017-09-19T14:30:33.400Z,3412
2017-09-19T14:31:13.929Z,3684
2017-09-19T14:31:54.474Z,4072
2017-09-19T14:32:35.007Z,4436
2017-09-19T14:33:15.546Z,4492
2017-09-19T14:33:56.090Z,4060
2017-09-19T14:34:36.609Z,3784
2017-09-19T14:35:17.140Z,3796
2017-09-19T14:35:57.676Z,3864
2017-09-19T14:36:38.217Z,3852
2017-09-19T14:37:18.764Z,4000
2017-09-19T14:37:59.323Z,4212
2017-09-19T14:38:39.864Z,4512
2017-09-19T14:39:20.416Z,4804
2017-09-19T14:40:00.945Z,5008
2017-09-19T14:40:41.488Z,4784
2017-09-19T14:41:22.014Z,4372
2017-09-19T14:42:02.550Z,3932
2017-09-19T14:42:43.092Z,3452
2017-09-19T14:43:23.627Z,3072
2017-09-19T14:44:04.174Z,2856
2017-09-19T14:44:44.723Z,2788
2017-09-19T14:45:25.264Z,2724
2017-09-19T14:46:05.809Z,2880
2017-09-19T14:46:46.348Z,3264
2017-09-19T14:47:26.890Z,3312
2017-09-19T14:48:07.407Z,3500
2017-09-19T14:48:47.939Z,3316
2017-09-19T14:49:28.482Z,3144
2017-09-19T14:50:09.013Z,2628
2017-09-19T14:50:49.551Z,2304
2017-09-19T14:51:30.097Z,1984
2017-09-19T14:52:10.625Z,1688
2017-09-19T14:52:51.137Z,1428
2017-09-19T14:53:31.680Z,1284
2017-09-19T14:54:12.218Z,1200